Airfield :
LOGIN :

Register | Disclaimer

   EN    FR    IT 

 










Legend :    VFR   Marginal VFR   IFR   Intensive IFR   Very Intensive IFR
Visi :
Ceiling :
>= 8 km
>= 3000ft
5 to 8 km
1000 to 3000 ft
1500m to 5 km
500 to 1000 ft
800 to 1500m
200 to 500 ft
< 800m
< 200 ft
Symbols :   Thunderstorms  Fog  Heavy snow  Heavy precipitations  Wind > 20 kt
SIGMETs :     Misc.  Thunderstorms  Icing  Turbulence  Mountain Waves  Volcanic Ashes







- Airport Elevation : 42 ft
- IATA code : LMO


EGQS - Lossiemouth

CURRENT METAR :
  • 181550Z 24017KT 9999 FEW018CB SCT070 08/04 Q0996 BLU NOSIG

EXPIRED METARs :
  • 181450Z 23017KT 9999 FEW018CB SCT200 09/04 Q0995 BLU TEMPO SCT018CB WHT
  • 181350Z 22019KT 9999 FEW026 BKN038 10/03 Q0995 BLU NOSIG

TAF TAF EGQS
Valid from the 18 at 15:00 until the 19 at 09:00 UTC


181343Z 1815/1909 21014KT 9999 FEW035
PROB40
TEMPO 1815/1822 26018G28KT 7000 SHRA SCT018CB
PROB30
TEMPO 1822/1905 28015G25KT
No reported NOTAMs for that airfield.



MET'MAP, your aeronautical weather chart ! - Copyright ORBIFLY December 2007 - Disclaimer

ORBIFLY MET'MAP TEAM :

Programming & Development : Alexandra Zaïnal
Concept & Development : Baudouin d'Aumeries
Co-Development & Prog : Marc-Olivier Méhu
Technical & hardware support : Manuel Goepfert

Contact : metmap@orbifly.com




SOURCES & CREDITS :

   NOAA